Etusivu
METAR-TAF:

METAR-TAF

Lentoasemat :

LaGrange-Callaway Airport

LaGrange, Georgia, Yhdysvallat

Leveyspiiri: 33-00-32N, Pituuspiiri: 085-04-21W, korkeus merenpinnasta: 211 m

Tämänhetkinen sää

Tämä raportti tehtiin 17 minuuttia sitten, kello 15.35 UTC
Tuuli 8 kn idästä/koillisesta, vaihdellen pohjoisen/koillisen ja idän välillä
Lämpötila 14°C
Kosteus 94%
Ilmanpaine 1011 hPa
Näkyvyys: 6.4 km
Pilvistä 500 ft:n korkeudessa
kovaa sadetta

METAR: KLGC 191535Z AUTO 07008KT 020V090 4SM +RA OVC005 14/13 A2986 RMK AO2 T01360131

Aika: 11:52 (15:52 UTC)


TAF: puuttuu

Säähavainnot ja -ennusteet yli 4000 lentoasemalta (METAR- ja TAF-raportit).

Käytössä olevat sääasemat on merkitty karttaan keltaisilla ja punaisilla pisteillä.

Aseta hiiri pisteen päälle nähdäksesi sääaseman nimen.

Klikkaa sitten nähdäksesi säähavainnot ja -ennusteet.

Kartan vaihtaminen: klikkaa mustalla rastilla varustettuja vihreitä pisteitä, niin voit zoomata sisään; viivalla varustettua vihreää pistettä, niin voit zoomata ulos tai vihreitä nuolia, niin pääset viereisille kartoille.


METAR-TAF: